.
WxDataArchive / Data Records for 2013-12-29
2013-12-28 December 2013 2013-12-30

Data Records for Sunday, 29 December 2013

Time	Temp	Chill	HIndex	Humid	Dewpt	 Wind 	HiWind	WindDir	Rain 	Barom 
-----	----	-----	------	-----	-----	------	------	-------	-----	----- 
00:00	40.3	40.3	40.3	63	28.7	0	2	248	0.00	29.918 
00:05	40.3	40.3	40.3	63	28.7	0	2	248	0.00	29.918 
00:10	40.2	40.2	40.2	63	28.6	0	1	248	0.00	29.918 
00:15	40.1	40.1	40.1	64	28.9	0	4	248	0.00	29.908 
00:20	39.9	39.9	39.9	64	28.7	0	5	248	0.00	29.908 
00:25	39.8	39.8	39.8	64	28.6	0	5	248	0.00	29.908 
00:30	39.8	39.8	39.8	64	28.6	0	1	248	0.00	29.911 
00:35	39.6	39.6	39.6	64	28.4	0	2	248	0.00	29.911 
00:40	39.6	39.6	39.6	64	28.4	0	3	248	0.00	29.911 
00:45	39.6	39.6	39.6	64	28.4	0	2	248	0.00	29.910 
00:50	39.6	39.6	39.6	64	28.4	0	2	248	0.00	29.910 
00:55	39.5	39.5	39.5	64	28.3	0	1	248	0.00	29.910 
01:00	39.5	39.5	39.5	64	28.3	0	2	248	0.00	29.908 
01:05	39.3	39.3	39.3	64	28.2	0	3	248	0.00	29.908 
01:10	39.2	39.2	39.2	64	28.1	0	2	248	0.00	29.908 
01:15	39.1	39.1	39.1	65	28.3	0	1	248	0.00	29.896 
01:20	38.8	38.8	38.8	65	28.1	0	1	248	0.00	29.896 
01:25	38.8	38.8	38.8	65	28.1	0	1	248	0.00	29.896 
01:30	38.6	38.6	38.6	65	27.9	0	2	248	0.00	29.893 
01:35	38.6	38.6	38.6	65	27.9	0	2	248	0.00	29.893 
01:40	38.8	38.8	38.8	65	28.1	0	2	248	0.00	29.893 
01:45	38.8	38.8	38.8	65	28.1	0	2	248	0.00	29.905 
01:50	38.8	38.8	38.8	65	28.1	0	1	248	0.00	29.905 
01:55	38.8	38.8	38.8	65	28.1	0	1	248	0.00	29.905 
02:00	38.8	38.8	38.8	65	28.1	0	1	248	0.00	29.898 
02:05	38.8	38.8	38.8	64	27.7	0	2	248	0.00	29.898 
02:10	38.8	38.8	38.8	64	27.7	0	1	248	0.00	29.898 
02:15	38.8	38.8	38.8	63	27.3	0	1	248	0.00	29.877 
02:20	38.9	38.9	38.9	63	27.4	0	2	248	0.00	29.877 
02:25	38.9	38.9	38.9	63	27.4	0	3	248	0.00	29.877 
02:30	39.1	39.1	39.1	62	27.2	0	2	248	0.00	29.877 
02:35	39.1	39.1	39.1	62	27.2	0	3	248	0.00	29.877 
02:40	39.1	39.1	39.1	62	27.2	0	2	248	0.00	29.877 
02:45	39.1	39.1	39.1	62	27.2	0	4	248	0.00	29.878 
02:50	39.1	39.1	39.1	62	27.2	0	1	248	0.00	29.878 
02:55	39.1	39.1	39.1	62	27.2	0	2	248	0.00	29.878 
03:00	38.9	38.9	38.9	62	27.0	0	1	248	0.00	29.873 
03:05	38.9	38.9	38.9	63	27.4	0	1	248	0.00	29.873 
03:10	38.8	38.8	38.8	63	27.3	0	1	248	0.00	29.873 
03:15	38.6	38.6	38.6	63	27.1	0	1	248	0.00	29.863 
03:20	38.6	38.6	38.6	63	27.1	0	1	248	0.00	29.863 
03:25	38.5	38.5	38.5	63	27.0	0	0	---	0.00	29.863 
03:30	38.3	38.3	38.3	64	27.2	0	0	---	0.00	29.861 
03:35	38.3	38.3	38.3	64	27.2	0	1	248	0.00	29.861 
03:40	38.2	38.2	38.2	64	27.1	0	1	248	0.00	29.861 
03:45	38.0	38.0	38.0	64	26.9	0	1	248	0.00	29.862 
03:50	38.0	38.0	38.0	65	27.3	0	1	248	0.00	29.862 
03:55	38.0	38.0	38.0	65	27.3	0	0	---	0.00	29.862 
04:00	37.9	37.9	37.9	65	27.2	0	1	248	0.00	29.863 
04:05	37.9	37.9	37.9	65	27.2	0	1	248	0.00	29.863 
04:10	37.9	37.9	37.9	65	27.2	0	1	248	0.00	29.863 
04:15	37.9	37.9	37.9	65	27.2	0	1	248	0.00	29.863 
04:20	37.8	37.8	37.8	65	27.1	0	1	248	0.00	29.863 
04:25	37.9	37.9	37.9	65	27.2	0	1	248	0.00	29.863 
04:30	37.9	37.9	37.9	65	27.2	0	2	248	0.00	29.847 
04:35	37.9	37.9	37.9	65	27.2	0	1	248	0.00	29.847 
04:40	37.9	37.9	37.9	65	27.2	0	1	248	0.00	29.847 
04:45	37.9	37.9	37.9	65	27.2	0	1	248	0.00	29.844 
04:50	37.9	37.9	37.9	65	27.2	0	1	248	0.00	29.844 
04:55	37.8	37.8	37.8	65	27.1	0	1	248	0.00	29.844 
05:00	37.8	37.8	37.8	65	27.1	0	1	248	0.00	29.843 
05:05	37.6	37.6	37.6	65	26.9	0	1	248	0.00	29.843 
05:10	37.6	37.6	37.6	66	27.3	0	0	---	0.00	29.843 
05:15	37.5	37.5	37.5	66	27.2	0	1	248	0.00	29.836 
05:20	37.5	37.5	37.5	66	27.2	0	0	---	0.00	29.836 
05:25	37.3	37.3	37.3	67	27.4	0	0	---	0.00	29.836 
05:30	37.3	37.3	37.3	67	27.4	0	0	---	0.00	29.836 
05:35	37.2	37.2	37.2	67	27.3	0	1	248	0.00	29.836 
05:40	37.2	37.2	37.2	68	27.6	0	1	248	0.00	29.836 
05:45	37.2	37.2	37.2	68	27.6	0	1	248	0.00	29.823 
05:50	37.0	37.0	37.0	68	27.4	0	1	248	0.00	29.823 
05:55	37.0	37.0	37.0	68	27.4	0	2	248	0.00	29.823 
06:00	37.0	37.0	37.0	68	27.4	0	1	248	0.00	29.820 
06:05	37.0	37.0	37.0	69	27.8	0	1	248	0.00	29.820 
06:10	37.0	37.0	37.0	68	27.4	0	0	---	0.00	29.820 
06:15	36.9	36.9	36.9	69	27.7	0	1	248	0.00	29.818 
06:20	36.9	36.9	36.9	69	27.7	0	0	---	0.00	29.818 
06:25	36.9	36.9	36.9	69	27.7	0	1	248	0.00	29.818 
06:30	36.8	36.8	36.8	69	27.6	0	1	248	0.00	29.806 
06:35	36.6	36.6	36.6	69	27.4	0	1	248	0.00	29.806 
06:40	36.6	36.6	36.6	69	27.4	0	0	---	0.00	29.806 
06:45	36.6	36.6	36.6	70	27.8	0	1	248	0.00	29.798 
06:50	36.8	36.8	36.8	70	27.9	0	1	248	0.00	29.798 
06:55	36.8	36.8	36.8	70	27.9	0	2	248	0.00	29.798 
07:00	36.9	36.9	36.9	69	27.7	0	2	248	0.00	29.804 
07:05	37.0	37.0	37.0	69	27.8	0	1	248	0.00	29.804 
07:10	37.2	37.2	37.2	69	28.0	0	1	248	0.00	29.804 
07:15	37.3	37.3	37.3	68	27.7	0	2	248	0.00	29.807 
07:20	37.5	37.5	37.5	68	27.9	0	3	248	0.00	29.807 
07:25	37.6	37.6	37.6	67	27.7	0	2	248	0.00	29.807 
07:30	37.8	37.8	37.8	67	27.8	0	4	248	0.00	29.805 
07:35	37.9	37.9	37.9	66	27.6	0	2	248	0.00	29.805 
07:40	38.0	38.0	38.0	66	27.7	0	3	248	0.00	29.805 
07:45	38.0	38.0	38.0	66	27.7	0	3	248	0.00	29.792 
07:50	38.0	38.0	38.0	66	27.7	0	4	248	0.00	29.792 
07:55	38.0	38.0	38.0	66	27.7	0	2	248	0.00	29.792 
08:00	38.2	38.2	38.2	66	27.9	0	3	248	0.00	29.790 
08:05	38.2	38.2	38.2	66	27.9	0	3	248	0.00	29.790 
08:10	38.0	38.0	38.0	66	27.7	0	2	248	0.00	29.790 
08:15	38.0	38.0	38.0	66	27.7	0	2	248	0.00	29.789 
08:20	37.9	37.9	37.9	66	27.6	0	2	248	0.00	29.789 
08:25	37.9	37.9	37.9	66	27.6	0	2	248	0.00	29.789 
08:30	37.9	37.9	37.9	66	27.6	0	2	248	0.00	29.789 
08:35	37.9	37.9	37.9	67	27.9	0	3	248	0.00	29.789 
08:40	37.9	37.9	37.9	67	27.9	0	2	248	0.00	29.789 
08:45	37.9	37.9	37.9	67	27.9	0	2	248	0.00	29.774 
08:50	37.9	37.9	37.9	67	27.9	0	2	248	0.00	29.774 
08:55	37.9	37.9	37.9	67	27.9	0	2	248	0.00	29.774 
09:00	37.9	37.9	37.9	67	27.9	0	2	248	0.00	29.783 
09:05	37.9	37.9	37.9	68	28.3	0	2	248	0.00	29.783 
09:10	37.9	37.9	37.9	68	28.3	0	3	248	0.00	29.783 
09:15	37.9	37.9	37.9	67	27.9	0	2	248	0.00	29.789 
09:20	38.0	38.0	38.0	67	28.0	1	5	248	0.00	29.789 
09:25	38.0	38.0	38.0	67	28.0	0	2	248	0.00	29.789 
09:30	38.2	38.2	38.2	67	28.2	1	3	248	0.00	29.788 
09:35	38.2	38.2	38.2	67	28.2	0	2	248	0.00	29.788 
09:40	38.2	38.2	38.2	67	28.2	0	3	248	0.00	29.788 
09:45	38.3	38.3	38.3	67	28.3	0	3	248	0.00	29.789 
09:50	38.3	38.3	38.3	67	28.3	0	2	248	0.00	29.789 
09:55	38.5	38.5	38.5	66	28.1	1	4	248	0.00	29.789 
10:00	38.5	38.5	38.5	66	28.1	1	3	248	0.00	29.788 
10:05	38.6	38.6	38.6	66	28.2	1	3	248	0.00	29.788 
10:10	38.6	38.6	38.6	66	28.2	1	4	248	0.00	29.788 
10:15	38.8	38.8	38.8	66	28.4	0	3	248	0.00	29.785 
10:20	38.9	38.9	38.9	66	28.5	1	4	248	0.00	29.785 
10:25	39.1	39.1	39.1	65	28.3	1	3	248	0.00	29.785 
10:30	39.2	39.2	39.2	66	28.8	1	4	248	0.00	29.782 
10:35	39.5	39.5	39.5	65	28.7	0	3	248	0.00	29.782 
10:40	39.6	39.6	39.6	65	28.8	2	5	248	0.00	29.782 
10:45	39.9	39.9	39.9	65	29.1	1	4	248	0.00	29.781 
10:50	40.2	40.2	40.2	64	29.0	1	4	248	0.00	29.781 
10:55	40.2	40.2	40.2	63	28.6	2	4	248	0.00	29.781 
11:00	40.3	40.3	40.3	64	29.1	2	5	248	0.00	29.775 
11:05	40.3	40.3	40.3	64	29.1	1	3	248	0.00	29.775 
11:10	40.3	40.3	40.3	64	29.1	1	3	248	0.00	29.775 
11:15	40.5	40.5	40.5	64	29.3	1	4	248	0.00	29.778 
11:20	40.3	40.3	40.3	64	29.1	1	2	248	0.00	29.778 
11:25	40.6	40.6	40.6	64	29.4	2	5	248	0.00	29.778 
11:30	40.9	40.9	40.9	64	29.7	1	4	248	0.00	29.770 
11:35	41.3	41.3	41.3	64	30.1	2	7	270	0.00	29.770 
11:40	41.5	41.5	41.5	63	29.9	3	7	248	0.00	29.770 
11:45	41.8	41.8	41.8	63	30.1	2	5	248	0.00	29.765 
11:50	42.1	42.1	42.1	63	30.4	2	6	270	0.00	29.765 
11:55	42.2	42.2	42.2	63	30.5	2	5	270	0.00	29.765 
12:00	42.2	42.2	42.2	63	30.5	3	7	270	0.00	29.764 
12:05	42.3	42.3	42.3	64	31.0	2	6	248	0.00	29.764 
12:10	42.5	42.5	42.5	64	31.2	1	4	248	0.00	29.764 
12:15	42.5	42.5	42.5	63	30.8	2	5	248	0.00	29.756 
12:20	42.3	42.3	42.3	64	31.0	2	6	292	0.00	29.756 
12:25	42.3	42.3	42.3	63	30.6	2	7	248	0.00	29.756 
12:30	42.5	42.5	42.5	64	31.2	1	4	248	0.00	29.745 
12:35	42.5	42.5	42.5	63	30.8	2	5	248	0.00	29.745 
12:40	42.5	42.5	42.5	64	31.2	1	5	248	0.00	29.745 
12:45	42.8	42.8	42.8	63	31.1	2	5	248	0.00	29.737 
12:50	42.9	42.9	42.9	63	31.2	1	3	248	0.00	29.737 
12:55	43.2	43.2	43.2	62	31.1	1	4	248	0.00	29.737 
13:00	43.3	43.3	43.3	62	31.2	2	5	248	0.00	29.728 
13:05	43.5	43.5	43.5	62	31.4	1	4	248	0.00	29.728 
13:10	43.9	43.9	43.9	61	31.3	2	3	248	0.00	29.728 
13:15	44.1	44.1	44.1	61	31.5	2	6	248	0.00	29.732 
13:20	44.1	44.1	44.1	61	31.5	2	5	292	0.00	29.732 
13:25	44.3	44.3	44.3	61	31.7	2	5	248	0.00	29.732 
13:30	44.3	44.3	44.3	61	31.7	2	4	248	0.00	29.734 
13:35	44.2	44.2	44.2	61	31.6	2	6	248	0.00	29.734 
13:40	43.9	43.9	43.9	61	31.3	2	5	270	0.00	29.734 
13:45	43.9	43.9	43.9	62	31.7	2	7	248	0.00	29.739 
13:50	44.1	44.1	44.1	62	31.9	1	4	248	0.00	29.739 
13:55	43.9	43.9	43.9	62	31.7	2	5	248	0.00	29.739 
14:00	43.6	43.6	43.6	62	31.5	2	5	248	0.00	29.741 
14:05	43.3	43.3	43.3	62	31.2	2	5	270	0.00	29.741 
14:10	43.1	43.1	43.1	63	31.4	2	6	270	0.00	29.741 
14:15	42.8	42.8	42.8	64	31.5	2	4	270	0.00	29.746 
14:20	42.6	42.6	42.6	64	31.3	2	5	248	0.00	29.746 
14:25	42.5	42.5	42.5	65	31.6	2	4	270	0.00	29.746 
14:30	42.3	42.3	42.3	65	31.4	2	5	270	0.00	29.751 
14:35	41.9	41.9	41.9	66	31.4	1	4	292	0.00	29.751 
14:40	41.6	41.6	41.6	66	31.1	2	9	292	0.00	29.751 
14:45	41.3	41.3	41.3	67	31.2	2	4	270	0.00	29.752 
14:50	41.1	41.1	41.1	68	31.4	2	5	248	0.00	29.752 
14:55	40.6	40.6	40.6	69	31.2	2	5	315	0.00	29.752 
15:00	40.1	40.1	40.1	69	30.8	2	6	292	0.00	29.759 
15:05	39.6	39.6	39.6	70	30.6	3	6	270	0.00	29.759 
15:10	39.2	39.2	39.2	71	30.6	2	7	270	0.00	29.759 
15:15	39.2	39.2	39.2	72	30.9	2	6	315	0.00	29.761 
15:20	39.2	39.2	39.2	72	30.9	1	6	315	0.00	29.761 
15:25	39.2	39.2	39.2	72	30.9	2	6	338	0.00	29.761 
15:30	39.2	39.2	39.2	72	30.9	2	5	315	0.00	29.770 
15:35	39.1	39.1	39.1	72	30.8	2	4	270	0.00	29.770 
15:40	38.9	38.9	38.9	72	30.7	2	5	248	0.00	29.770 
15:45	38.8	38.8	38.8	72	30.6	1	4	248	0.00	29.775 
15:50	38.6	38.6	38.6	73	30.7	3	5	270	0.00	29.775 
15:55	38.3	38.3	38.3	74	30.8	2	4	248	0.00	29.775 
16:00	38.2	38.2	38.2	75	31.0	2	5	270	0.00	29.790 
16:05	37.9	37.9	37.9	76	31.0	2	4	270	0.00	29.790 
16:10	37.8	37.8	37.8	77	31.2	2	5	270	0.00	29.790 
16:15	37.5	37.5	37.5	78	31.3	3	6	270	0.00	29.798 
16:20	37.2	37.2	37.2	79	31.3	3	7	270	0.00	29.798 
16:25	36.9	36.9	36.9	81	31.6	3	6	270	0.00	29.798 
16:30	36.5	36.5	36.5	83	31.8	3	5	292	0.00	29.812 
16:35	36.0	36.0	36.0	84	31.6	3	5	270	0.00	29.812 
16:40	35.6	35.6	35.6	85	31.5	3	6	292	0.00	29.812 
16:45	35.2	35.2	35.2	87	31.7	2	5	248	0.00	29.825 
16:50	35.0	35.0	35.0	87	31.5	1	4	248	0.00	29.825 
16:55	35.0	35.0	35.0	88	31.8	1	9	292	0.00	29.825 
17:00	34.7	34.7	34.7	88	31.5	2	7	270	0.00	29.832 
17:05	34.4	34.4	34.4	88	31.2	3	5	270	0.00	29.832 
17:10	34.0	34.0	34.0	88	30.8	3	6	270	0.00	29.832 
17:15	33.5	33.5	33.5	87	30.1	3	6	270	0.00	29.844 
17:20	33.2	33.2	33.2	87	29.8	2	5	248	0.00	29.844 
17:25	32.9	32.9	32.9	86	29.2	3	6	270	0.00	29.844 
17:30	32.8	32.8	32.8	86	29.1	3	10	315	0.00	29.852 
17:35	32.7	32.7	32.7	85	28.7	3	5	270	0.00	29.852 
17:40	32.5	32.5	32.5	84	28.2	2	5	248	0.00	29.852 
17:45	32.4	32.4	32.4	84	28.1	2	7	315	0.00	29.862 
17:50	32.2	32.2	32.2	83	27.6	2	6	338	0.00	29.862 
17:55	32.1	32.1	32.1	83	27.5	2	10	315	0.00	29.862 
18:00	31.8	31.8	31.8	81	26.6	3	11	315	0.00	29.877 
18:05	31.6	31.6	31.6	80	26.2	3	10	315	0.00	29.877 
18:10	31.5	31.5	31.5	80	26.1	3	7	315	0.00	29.877 
18:15	31.3	31.3	31.3	80	25.9	3	11	270	0.00	29.892 
18:20	31.2	27.2	31.2	79	25.5	4	9	292	0.00	29.892 
18:25	30.9	30.9	30.9	78	24.9	3	9	0	0.00	29.892 
18:30	30.7	26.6	30.7	77	24.4	4	12	315	0.00	29.900 
18:35	30.7	26.6	30.7	77	24.4	4	9	315	0.00	29.900 
18:40	30.6	30.6	30.6	77	24.3	3	7	292	0.00	29.900 
18:45	30.4	26.2	30.4	77	24.1	4	9	315	0.00	29.911 
18:50	30.3	30.3	30.3	78	24.3	3	9	292	0.00	29.911 
18:55	30.3	30.3	30.3	78	24.3	2	6	315	0.00	29.911 
19:00	30.1	25.9	30.1	78	24.1	4	10	338	0.00	29.923 
19:05	30.1	30.1	30.1	79	24.4	3	7	315	0.00	29.923 
19:10	30.0	30.0	30.0	78	24.0	3	9	315	0.00	29.923 
19:15	29.8	29.8	29.8	78	23.8	3	7	292	0.00	29.928 
19:20	29.7	29.7	29.7	77	23.4	2	7	315	0.00	29.928 
19:25	29.7	29.7	29.7	77	23.4	3	6	292	0.00	29.928 
19:30	29.7	29.7	29.7	77	23.4	3	7	292	0.00	29.942 
19:35	29.5	29.5	29.5	77	23.2	2	6	292	0.00	29.942 
19:40	29.5	29.5	29.5	77	23.2	2	4	248	0.00	29.942 
19:45	29.4	29.4	29.4	77	23.1	3	6	248	0.00	29.957 
19:50	29.3	29.3	29.3	78	23.3	3	7	248	0.00	29.957 
19:55	29.1	29.1	29.1	78	23.1	3	6	315	0.00	29.957 
20:00	28.8	28.8	28.8	78	22.8	3	7	292	0.00	29.962 
20:05	28.7	28.7	28.7	78	22.7	3	7	292	0.00	29.962 
20:10	28.5	28.5	28.5	78	22.5	3	8	338	0.00	29.962 
20:15	28.4	28.4	28.4	78	22.4	3	6	270	0.00	29.969 
20:20	28.4	28.4	28.4	78	22.4	2	6	270	0.00	29.969 
20:25	28.4	28.4	28.4	78	22.4	2	6	292	0.00	29.969 
20:30	28.2	28.2	28.2	78	22.2	3	6	292	0.00	29.973 
20:35	28.1	28.1	28.1	78	22.1	3	9	338	0.00	29.973 
20:40	27.9	23.3	27.9	78	21.9	4	9	292	0.00	29.973 
20:45	27.8	23.2	27.8	78	21.8	4	11	315	0.00	29.977 
20:50	27.6	23.0	27.6	79	22.0	4	8	292	0.00	29.977 
20:55	27.6	27.6	27.6	80	22.3	2	5	292	0.00	29.977 
21:00	27.6	27.6	27.6	80	22.3	3	8	338	0.00	29.990 
21:05	27.6	27.6	27.6	81	22.5	2	7	292	0.00	29.990 
21:10	27.6	27.6	27.6	81	22.5	2	7	270	0.00	29.990 
21:15	27.6	27.6	27.6	81	22.5	1	4	270	0.00	29.996 
21:20	27.5	27.5	27.5	81	22.4	3	6	270	0.00	29.996 
21:25	27.5	27.5	27.5	81	22.4	3	7	292	0.00	29.996 
21:30	27.5	27.5	27.5	81	22.4	2	7	292	0.00	30.000 
21:35	27.3	27.3	27.3	81	22.3	3	9	292	0.00	30.000 
21:40	27.3	27.3	27.3	81	22.3	3	11	338	0.00	30.000 
21:45	27.0	27.0	27.0	81	22.0	3	6	315	0.00	30.004 
21:50	26.9	26.9	26.9	82	22.2	1	4	270	0.00	30.004 
21:55	26.7	26.7	26.7	82	22.0	2	9	0	0.00	30.004 
22:00	26.6	26.6	26.6	83	22.1	1	4	315	0.00	30.007 
22:05	26.6	26.6	26.6	83	22.1	1	4	270	0.00	30.007 
22:10	26.6	26.6	26.6	82	21.9	2	5	270	0.00	30.007 
22:15	26.6	26.6	26.6	82	21.9	2	6	338	0.00	30.012 
22:20	26.6	26.6	26.6	81	21.6	2	5	315	0.00	30.012 
22:25	26.6	26.6	26.6	81	21.6	2	5	292	0.00	30.012 
22:30	26.4	26.4	26.4	81	21.4	3	9	338	0.00	30.022 
22:35	26.4	26.4	26.4	81	21.4	2	5	315	0.00	30.022 
22:40	26.4	26.4	26.4	81	21.4	1	5	315	0.00	30.022 
22:45	26.6	26.6	26.6	80	21.3	0	2	248	0.00	30.024 
22:50	26.6	26.6	26.6	80	21.3	1	5	338	0.00	30.024 
22:55	26.4	26.4	26.4	80	21.1	2	4	270	0.00	30.024 
23:00	26.3	26.3	26.3	81	21.3	1	3	315	0.00	30.030 
23:05	26.3	26.3	26.3	81	21.3	0	2	315	0.00	30.030 
23:10	26.3	26.3	26.3	80	21.0	1	5	315	0.00	30.030 
23:15	26.3	26.3	26.3	80	21.0	1	6	270	0.00	30.032 
23:20	26.1	26.1	26.1	79	20.5	1	5	315	0.00	30.032 
23:25	26.0	26.0	26.0	79	20.4	2	5	315	0.00	30.032 
23:30	26.0	26.0	26.0	79	20.4	2	4	315	0.00	30.036 
23:35	25.8	25.8	25.8	78	19.9	1	3	292	0.00	30.036 
23:40	25.7	25.7	25.7	77	19.5	1	4	292	0.00	30.036 
23:45	25.7	25.7	25.7	77	19.5	1	3	315	0.00	30.043 
23:50	25.6	25.6	25.6	77	19.4	1	3	292	0.00	30.043 
23:55	25.4	25.4	25.4	76	18.9	1	4	270	0.00	30.043 

CoCoRaHS
IN-AL-39
A2 Web Hosting
Creative Commons License
GoDaddy
search engine by freefind advanced

loaded 2018-11-16 00:13:53 • last modified 2010-11-18 10:43:29
Privacy PolicyDisclaimer
• wx.awcolley.com is powered by PmWiki v.2002016 •
• all content (unless otherwise noted) © 2018 A W Colley